Open Full Screen Window  High Contrast Mode
Wind Gusting 00 knots
04
September 01, 2014 3:25 AM EDT
Present Weather: Rain
Weather Information
Wind Direction
  240 °
Wind Speed
  04 kt (5 mph)
Wind Gust
  00 kt (0 mph)
Altimeter
30.01 in
Visibility
10 SM
Temperature
23° C
73° F
Dewpoint
22° C
72° F
Humidity
94%
1hr Rain Fall
00.00 in.
24hr Rain Fall
00.08 in.
Sky Condition
Overcast @ 600 ft
IFR

METAR KI69 010725Z AUTO 24004KT 10SM RA OVC006 23/22 A3001 RMK AO1

*Background is not an actual portrayal of the airport.